Time;durP1;ratioP1;P1;durP2;ratioP2;P2;SDS_P1;SDS_P2;PMS_P1;PMS_P2;Temp;Humidity;BMP_temperature;BMP_pressure;BME280_temperature;BME280_humidity;BME280_pressure;Samples;Min_cycle;Max_cycle;Signal;HPM_P1;HPM_P2
2022/11/18 00:00:08;;;;;;;41.40;22.70;;;;;;;1.22;60.70;99422.31;104985;1292;141414;-79
2022/11/18 00:02:39;;;;;;;30.50;18.00;;;;;;;1.19;61.14;99419.18;105067;1292;107551;-81
2022/11/18 00:05:10;;;;;;;22.90;16.70;;;;;;;1.21;60.80;99415.15;105084;1299;93160;-81
2022/11/18 00:07:40;;;;;;;21.50;15.30;;;;;;;1.16;60.25;99414.66;104985;1299;138198;-82
2022/11/18 00:10:11;;;;;;;24.50;16.50;;;;;;;1.13;60.70;99413.44;105065;1286;108161;-81
2022/11/18 00:15:30;;;;;;;21.00;15.40;;;;;;;1.07;60.64;99414.67;105045;1292;108668;-80
2022/11/18 00:18:01;;;;;;;23.10;15.90;;;;;;;1.09;60.21;99413.45;104981;1291;140744;-81
2022/11/18 00:20:32;;;;;;;20.70;16.20;;;;;;;1.10;61.07;99408.90;105085;1294;93654;-82
2022/11/18 00:23:03;;;;;;;21.60;16.30;;;;;;;1.11;60.35;99406.44;105095;1286;108243;-80
2022/11/18 00:25:35;;;;;;;22.80;16.50;;;;;;;1.06;60.61;99408.05;104991;1298;138462;-79
2022/11/18 00:28:06;;;;;;;21.80;15.50;;;;;;;1.01;60.98;99408.40;105059;1292;107713;-80
2022/11/18 00:30:36;;;;;;;20.50;15.70;;;;;;;1.00;60.90;99408.06;104969;1297;138617;-80
2022/11/18 00:33:07;;;;;;;20.50;15.10;;;;;;;0.99;60.80;99408.95;105087;1299;93187;-82
2022/11/18 00:35:37;;;;;;;23.10;17.50;;;;;;;1.03;60.99;99408.75;104958;1295;140953;-81
2022/11/18 00:38:08;;;;;;;22.30;16.80;;;;;;;1.07;60.71;99406.98;105107;1292;97915;-80
2022/11/18 00:40:39;;;;;;;22.90;16.40;;;;;;;1.09;60.67;99408.20;105051;1284;107985;-81
2022/11/18 00:43:09;;;;;;;24.70;17.50;;;;;;;1.08;60.26;99406.46;104973;1299;138362;-81
2022/11/18 00:45:40;;;;;;;22.80;16.50;;;;;;;1.07;60.41;99405.77;105111;1293;93283;-79
2022/11/18 00:48:10;;;;;;;23.10;16.70;;;;;;;0.99;60.02;99408.08;104971;1299;138259;-81
2022/11/18 00:50:41;;;;;;;20.20;15.30;;;;;;;0.82;59.23;99406.89;105088;1299;98129;-79
2022/11/18 00:53:11;;;;;;;20.40;15.10;;;;;;;0.73;60.29;99407.78;105079;1294;106454;-79
2022/11/18 00:55:42;;;;;;;20.20;15.20;;;;;;;0.77;60.34;99409.35;104984;1294;142119;-80
2022/11/18 00:58:14;;;;;;;19.30;14.80;;;;;;;0.79;60.54;99409.17;105121;1287;93538;-79
2022/11/18 01:00:47;;;;;;;21.00;15.20;;;;;;;0.79;59.94;99414.94;104974;1284;138695;-79
2022/11/18 01:03:19;;;;;;;20.30;15.30;;;;;;;0.77;60.36;99415.30;105082;1294;98376;-79
2022/11/18 01:05:49;;;;;;;19.70;14.90;;;;;;;0.77;60.15;99416.53;104976;1295;138654;-80
2022/11/18 01:08:20;;;;;;;20.60;15.40;;;;;;;0.77;60.45;99409.71;105089;1295;93082;-79
2022/11/18 01:10:52;;;;;;;20.00;14.70;;;;;;;0.80;60.50;99407.24;105095;1294;93496;-80
2022/11/18 01:13:25;;;;;;;20.40;15.40;;;;;;;0.83;60.63;99406.19;104975;1293;139405;-78
2022/11/18 01:15:57;;;;;;;19.10;15.40;;;;;;;0.92;60.79;99400.41;105117;1293;98170;-79
2022/11/18 01:18:30;;;;;;;19.20;15.40;;;;;;;0.92;59.99;99405.46;104971;1294;138855;-80
2022/11/18 01:21:05;;;;;;;19.90;14.60;;;;;;;0.91;59.68;99403.04;105087;1294;93054;-81
2022/11/18 01:23:35;;;;;;;20.20;16.10;;;;;;;0.84;59.14;99402.87;104997;1294;139155;-81
2022/11/18 01:26:08;;;;;;;21.20;15.50;;;;;;;0.76;59.53;99399.40;105100;1294;108409;-80
2022/11/18 01:28:39;;;;;;;20.70;15.50;;;;;;;0.72;60.38;99399.05;105056;1299;98181;-81
2022/11/18 01:31:12;;;;;;;21.00;15.60;;;;;;;0.70;60.56;99394.70;104960;1295;138178;-81
2022/11/18 01:33:43;;;;;;;19.10;14.30;;;;;;;0.72;60.18;99394.70;105071;1294;93156;-80
2022/11/18 01:36:22;;;;;;;20.50;15.40;;;;;;;0.69;60.39;99396.10;105013;1284;139240;-82
2022/11/18 01:38:54;;;;;;;18.90;14.50;;;;;;;0.73;60.99;99393.64;105072;1293;107933;-80
2022/11/18 01:41:26;;;;;;;20.10;15.10;;;;;;;0.76;60.81;99395.73;104971;1299;139379;-81
2022/11/18 01:43:59;;;;;;;20.90;15.10;;;;;;;0.77;61.03;99389.98;105085;1284;107684;-81
2022/11/18 01:46:31;;;;;;;21.30;15.40;;;;;;;0.83;61.06;99384.00;105056;1292;92891;-82
2022/11/18 01:49:06;;;;;;;20.60;15.20;;;;;;;0.83;60.67;99383.83;104983;1294;139023;-82
2022/11/18 01:51:43;;;;;;;21.60;15.70;;;;;;;0.76;61.07;99385.08;105030;1293;108276;-83
2022/11/18 01:54:19;;;;;;;19.90;15.20;;;;;;;0.70;61.02;99383.52;104987;1293;138065;-81
2022/11/18 01:56:53;;;;;;;21.20;15.60;;;;;;;0.68;60.99;99380.02;105064;1292;107440;-81
2022/11/18 01:59:30;;;;;;;21.10;16.00;;;;;;;0.62;61.01;99376.54;104937;1294;141007;-80
2022/11/18 02:02:05;;;;;;;20.30;14.20;;;;;;;0.62;61.38;99372.54;105061;1293;93663;-82
2022/11/18 02:04:36;;;;;;;18.80;14.30;;;;;;;0.60;61.14;99367.82;105044;1291;108411;-81
2022/11/18 02:07:08;;;;;;;21.90;15.80;;;;;;;0.61;61.84;99365.73;104960;1293;142175;-81
2022/11/18 02:09:40;;;;;;;20.60;15.20;;;;;;;0.69;61.58;99365.70;105074;1299;107890;-81
2022/11/18 02:12:11;;;;;;;19.50;15.10;;;;;;;0.81;61.86;99362.52;104973;1295;139457;-81
2022/11/18 02:14:45;;;;;;;18.50;13.60;;;;;;;0.87;61.79;99364.94;105128;1295;93197;-81
2022/11/18 02:17:27;;;;;;;18.20;13.40;;;;;;;0.85;60.84;99368.96;105048;1293;108182;-82
2022/11/18 02:20:26;;;;;;;17.70;13.10;;;;;;;0.81;61.76;99369.16;105080;1290;98064;-81
2022/11/18 02:23:30;;;;;;;18.40;13.30;;;;;;;0.89;61.64;99364.60;105038;1299;105539;-81
2022/11/18 02:26:16;;;;;;;16.90;13.40;;;;;;;0.93;61.13;99364.05;105032;1294;93228;-82
2022/11/18 02:29:01;;;;;;;17.60;13.20;;;;;;;0.95;61.28;99360.73;105097;1294;93461;-81
2022/11/18 02:31:46;;;;;;;18.10;13.70;;;;;;;0.95;61.23;99367.53;104853;1292;140016;-82
2022/11/18 02:34:25;;;;;;;19.50;13.80;;;;;;;0.94;61.51;99369.64;104997;1299;98047;-82
2022/11/18 02:37:00;;;;;;;18.70;13.70;;;;;;;0.98;62.00;99372.77;104924;1294;140392;-81
2022/11/18 02:39:35;;;;;;;17.50;13.90;;;;;;;1.00;61.89;99376.95;104972;1299;128318;-81
2022/11/18 02:42:09;;;;;;;20.70;14.80;;;;;;;1.04;61.60;99370.82;104988;1294;140989;-80
2022/11/18 02:44:46;;;;;;;18.40;13.50;;;;;;;0.99;61.08;99368.04;104954;1294;108543;-80
2022/11/18 02:47:18;;;;;;;17.30;13.20;;;;;;;0.92;61.28;99364.05;105070;1293;98396;-81
2022/11/18 02:49:52;;;;;;;18.00;13.60;;;;;;;0.94;61.53;99365.79;104942;1284;139689;-81
2022/11/18 02:52:26;;;;;;;19.60;14.30;;;;;;;0.99;61.83;99366.48;105039;1292;92971;-81
2022/11/18 02:54:58;;;;;;;18.60;13.80;;;;;;;1.03;61.50;99368.91;104943;1293;140500;-81
2022/11/18 02:57:31;;;;;;;20.00;14.10;;;;;;;1.02;61.60;99365.93;105056;1299;108566;-79
2022/11/18 03:00:01;;;;;;;18.70;13.50;;;;;;;1.03;61.78;99365.04;104919;1290;140948;-82
2022/11/18 03:02:42;;;;;;;18.70;13.30;;;;;;;0.99;61.44;99358.79;105064;1299;107304;-81
2022/11/18 03:05:21;;;;;;;17.50;12.90;;;;;;;1.00;61.67;99356.52;105011;1294;94277;-81
2022/11/18 03:07:57;;;;;;;20.20;14.00;;;;;;;0.94;61.74;99357.73;104985;1294;139875;-82
2022/11/18 03:10:34;;;;;;;20.60;15.10;;;;;;;0.89;61.81;99358.65;105068;1291;108436;-82
2022/11/18 03:13:11;;;;;;;21.00;15.30;;;;;;;0.85;61.85;99350.61;104983;1284;138421;-82
2022/11/18 03:15:50;;;;;;;19.20;13.70;;;;;;;0.81;62.02;99346.10;105080;1294;107225;-81
2022/11/18 03:18:27;;;;;;;19.80;14.20;;;;;;;0.84;62.38;99344.34;104919;1292;139507;-82
2022/11/18 03:21:04;;;;;;;19.20;14.10;;;;;;;0.89;62.28;99346.77;105054;1295;93657;-81
2022/11/18 03:23:40;;;;;;;18.20;13.10;;;;;;;0.91;62.46;99345.70;104927;1292;139129;-82
2022/11/18 03:26:16;;;;;;;18.60;13.90;;;;;;;0.86;62.59;99336.27;105067;1294;98154;-83
2022/11/18 03:28:53;;;;;;;18.40;12.90;;;;;;;0.79;62.86;99327.76;105090;1291;108049;-82
2022/11/18 03:31:27;;;;;;;16.80;12.50;;;;;;;0.75;62.66;99326.73;104949;1297;139614;-82
2022/11/18 03:34:01;;;;;;;19.70;13.60;;;;;;;0.75;62.75;99327.95;105052;1292;93216;-82
2022/11/18 03:36:38;;;;;;;18.40;13.50;;;;;;;0.77;62.95;99329.69;104959;1292;139209;-81
2022/11/18 03:39:12;;;;;;;19.50;13.50;;;;;;;0.80;62.79;99332.30;105122;1293;98535;-81
2022/11/18 03:41:47;;;;;;;18.30;13.50;;;;;;;0.85;63.05;99327.91;104961;1294;139649;-82
2022/11/18 03:44:23;;;;;;;18.40;13.10;;;;;;;0.84;63.28;99327.92;105049;1293;93205;-82
2022/11/18 03:46:59;;;;;;;16.60;12.60;;;;;;;0.84;63.23;99328.98;104978;1293;93568;-80
2022/11/18 03:49:33;;;;;;;18.90;14.00;;;;;;;0.81;63.51;99331.59;104936;1286;141394;-80
2022/11/18 03:52:15;;;;;;;18.10;12.80;;;;;;;0.84;63.38;99332.97;105069;1285;97887;-80
2022/11/18 03:54:51;;;;;;;18.80;12.80;;;;;;;0.86;63.74;99333.15;104944;1295;139682;-81
2022/11/18 03:57:30;;;;;;;21.60;14.80;;;;;;;0.82;63.86;99330.89;105063;1287;93277;-81
2022/11/18 04:00:06;;;;;;;19.00;14.40;;;;;;;0.77;64.25;99328.64;104989;1294;139736;-80
2022/11/18 04:02:37;;;;;;;18.40;13.50;;;;;;;0.76;64.00;99334.06;105061;1286;108765;-80
2022/11/18 04:05:13;;;;;;;19.70;14.50;;;;;;;0.75;64.28;99331.61;105094;1293;98183;-79
2022/11/18 04:07:53;;;;;;;21.40;14.70;;;;;;;0.74;64.65;99333.20;104962;1299;137771;-79
2022/11/18 04:10:30;;;;;;;19.10;13.00;;;;;;;0.76;64.55;99338.25;105088;1294;92838;-81
2022/11/18 04:13:05;;;;;;;15.80;10.80;;;;;;;0.74;64.20;99339.83;104970;1295;139114;-78
2022/11/18 04:15:38;;;;;;;13.90;10.10;;;;;;;0.68;64.43;99337.94;105068;1292;108463;-78
2022/11/18 04:18:10;;;;;;;14.90;10.10;;;;;;;0.60;64.43;99341.10;104985;1299;140097;-79
2022/11/18 04:20:40;;;;;;;14.70;10.00;;;;;;;0.64;64.38;99342.48;105085;1294;106903;-78
2022/11/18 04:23:11;;;;;;;13.60;9.30;;;;;;;0.64;64.34;99339.52;105097;1299;93192;-81
2022/11/18 04:25:42;;;;;;;13.70;9.10;;;;;;;0.56;64.08;99340.77;104993;1298;140827;-80
2022/11/18 04:28:13;;;;;;;12.80;8.30;;;;;;;0.49;63.89;99338.15;105064;1293;109446;-79
2022/11/18 04:30:43;;;;;;;12.50;8.80;;;;;;;0.47;64.45;99337.80;104996;1290;140061;-80
2022/11/18 04:33:14;;;;;;;13.70;9.60;;;;;;;0.47;64.39;99338.86;105096;1294;107581;-78
2022/11/18 04:35:46;;;;;;;14.10;9.00;;;;;;;0.46;64.33;99341.31;104981;1288;139811;-79
2022/11/18 04:38:16;;;;;;;12.70;8.80;;;;;;;0.43;64.53;99346.05;105085;1294;92908;-80
2022/11/18 04:40:51;;;;;;;11.50;7.80;;;;;;;0.48;64.53;99341.99;105081;1284;108323;-80
2022/11/18 04:43:22;;;;;;;12.80;8.60;;;;;;;0.46;64.94;99337.82;104974;1295;139925;-80
2022/11/18 04:45:52;;;;;;;15.00;10.00;;;;;;;0.40;65.13;99334.87;105060;1297;107661;-79
2022/11/18 04:48:23;;;;;;;16.50;10.30;;;;;;;0.40;64.98;99332.77;104960;1298;138349;-78
2022/11/18 04:50:56;;;;;;;15.90;10.70;;;;;;;0.41;65.06;99333.29;105105;1294;93719;-80
2022/11/18 04:53:27;;;;;;;15.40;9.90;;;;;;;0.38;65.30;99335.56;105094;1286;109022;-77
2022/11/18 04:56:03;;;;;;;14.60;9.70;;;;;;;0.38;64.97;99335.05;104986;1294;139842;-79
2022/11/18 04:58:34;;;;;;;13.90;9.10;;;;;;;0.34;64.87;99335.58;105045;1290;107748;-78
2022/11/18 05:01:05;;;;;;;18.30;11.30;;;;;;;0.31;64.96;99334.71;104936;1294;138390;-78
2022/11/18 05:03:35;;;;;;;26.60;14.10;;;;;;;0.33;64.97;99338.02;105099;1295;93293;-78
2022/11/18 05:06:06;;;;;;;17.90;10.80;;;;;;;0.38;65.15;99342.73;104985;1297;139475;-78
2022/11/18 05:08:37;;;;;;;13.70;9.00;;;;;;;0.34;64.81;99337.84;105081;1294;98613;-78
2022/11/18 05:13:54;;;;;;;13.60;9.30;;;;;;;0.36;65.00;99339.94;104999;1290;139517;-78
2022/11/18 05:16:24;;;;;;;14.00;8.90;;;;;;;0.33;65.11;99338.37;105096;1294;92786;-79
2022/11/18 05:18:55;;;;;;;13.40;9.60;;;;;;;0.23;64.99;99338.74;104955;1295;139916;-78
2022/11/18 05:21:25;;;;;;;13.10;9.10;;;;;;;0.16;65.44;99334.20;105103;1292;97839;-79
2022/11/18 05:23:56;;;;;;;13.90;9.80;;;;;;;0.18;65.85;99335.07;104947;1294;139327;-80
2022/11/18 05:26:27;;;;;;;14.20;9.40;;;;;;;0.19;65.74;99334.38;105088;1292;93151;-82
2022/11/18 05:28:58;;;;;;;13.80;9.10;;;;;;;0.21;65.93;99334.03;105116;1292;93077;-80
2022/11/18 05:31:28;;;;;;;14.90;9.60;;;;;;;0.25;65.90;99334.20;104965;1297;140682;-82
2022/11/18 05:33:59;;;;;;;14.70;9.10;;;;;;;0.20;65.95;99324.60;105103;1299;97244;-81
2022/11/18 05:36:30;;;;;;;14.00;9.50;;;;;;;0.25;65.95;99326.67;104941;1295;138697;-80
2022/11/18 05:39:01;;;;;;;12.70;9.30;;;;;;;0.25;65.38;99326.85;105083;1291;93525;-80
2022/11/18 05:44:20;;;;;;;13.90;9.10;;;;;;;0.28;65.97;99325.98;105095;1294;108490;-81
2022/11/18 05:46:51;;;;;;;14.20;9.30;;;;;;;0.30;65.54;99323.54;105085;1293;98124;-79
2022/11/18 05:49:21;;;;;;;14.50;9.20;;;;;;;0.30;65.91;99325.81;104965;1294;140253;-81
2022/11/18 05:51:52;;;;;;;12.70;8.90;;;;;;;0.31;66.16;99324.58;105085;1298;92881;-80
2022/11/18 05:54:23;;;;;;;13.20;8.90;;;;;;;0.33;65.58;99327.02;104978;1285;140631;-80
2022/11/18 05:56:54;;;;;;;12.80;8.50;;;;;;;0.35;65.77;99327.02;105065;1294;108458;-84
2022/11/18 05:59:24;;;;;;;11.00;7.50;;;;;;;0.38;65.57;99330.15;105053;1291;98064;-81
2022/11/18 06:02:00;;;;;;;12.30;8.20;;;;;;;0.40;65.25;99329.61;104983;1295;139027;-82
2022/11/18 06:04:37;;;;;;;10.90;7.40;;;;;;;0.40;64.94;99328.91;105072;1288;93209;-81
2022/11/18 06:07:14;;;;;;;17.60;10.80;;;;;;;0.30;64.55;99335.58;104977;1294;138124;-80
2022/11/18 06:09:49;;;;;;;11.00;7.20;;;;;;;0.25;64.97;99334.19;105101;1293;108697;-81
2022/11/18 06:12:23;;;;;;;10.90;7.10;;;;;;;0.22;64.90;99328.63;105003;1294;139531;-82
2022/11/18 06:14:57;;;;;;;12.60;6.90;;;;;;;0.24;65.12;99328.78;105041;1294;108982;-81
2022/11/18 06:17:32;;;;;;;11.70;7.00;;;;;;;0.25;65.06;99330.17;105050;1297;93977;-81
2022/11/18 06:20:04;;;;;;;10.20;6.60;;;;;;;0.18;64.84;99325.66;104943;1294;139801;-80
2022/11/18 06:22:35;;;;;;;9.90;6.10;;;;;;;0.18;64.72;99324.42;105082;1299;108679;-79
2022/11/18 06:25:14;;;;;;;10.40;6.20;;;;;;;0.21;64.62;99327.40;104976;1294;138489;-81
2022/11/18 06:27:46;;;;;;;10.10;6.50;;;;;;;0.25;64.31;99329.83;105088;1294;107818;-80
2022/11/18 06:30:17;;;;;;;10.90;7.00;;;;;;;0.22;64.24;99331.41;104952;1284;139053;-82
2022/11/18 06:32:48;;;;;;;11.50;7.40;;;;;;;0.24;64.40;99330.34;105095;1299;93666;-80
2022/11/18 06:35:18;;;;;;;11.30;6.70;;;;;;;0.22;64.40;99333.67;105074;1292;108558;-80
2022/11/18 06:37:49;;;;;;;11.00;6.80;;;;;;;0.26;64.85;99332.10;104974;1298;138685;-81
2022/11/18 06:40:20;;;;;;;10.60;7.00;;;;;;;0.35;64.78;99329.65;105094;1294;107563;-83
2022/11/18 06:45:38;;;;;;;14.10;7.60;;;;;;;0.29;64.14;99332.44;105108;1294;93277;-83
2022/11/18 06:48:35;;;;;;;11.10;7.30;;;;;;;0.28;64.71;99336.81;104924;1295;139246;-79
2022/11/18 06:51:08;;;;;;;11.60;6.60;;;;;;;0.30;64.63;99339.60;105047;1291;97219;-79
2022/11/18 06:53:39;;;;;;;10.00;6.70;;;;;;;0.34;64.73;99343.79;104933;1297;139454;-80
2022/11/18 06:56:12;;;;;;;11.20;7.10;;;;;;;0.35;64.52;99346.05;105094;1294;93311;-81
2022/11/18 06:58:42;;;;;;;10.30;7.00;;;;;;;0.36;64.12;99346.05;105112;1294;93246;-81
2022/11/18 07:01:15;;;;;;;13.00;7.80;;;;;;;0.38;64.64;99345.69;104994;1298;138702;-79
2022/11/18 07:03:47;;;;;;;13.70;7.60;;;;;;;0.40;64.62;99346.21;105068;1298;98162;-79
2022/11/18 07:06:20;;;;;;;10.30;6.90;;;;;;;0.39;64.51;99342.02;104986;1298;139129;-80
2022/11/18 07:08:51;;;;;;;11.20;6.30;;;;;;;0.36;64.23;99340.13;104987;1292;94616;-81
2022/11/18 07:11:23;;;;;;;11.60;6.80;;;;;;;0.36;64.27;99343.95;105117;1297;93245;-81
2022/11/18 07:13:54;;;;;;;11.00;7.00;;;;;;;0.36;64.29;99350.42;104989;1294;140138;-80
2022/11/18 07:16:26;;;;;;;10.70;6.70;;;;;;;0.37;64.50;99347.97;105084;1284;97893;-83
2022/11/18 07:18:57;;;;;;;10.80;6.50;;;;;;;0.39;64.31;99347.61;104963;1294;140917;-79
2022/11/18 07:21:29;;;;;;;10.20;6.30;;;;;;;0.36;63.97;99352.51;105069;1299;93271;-81
2022/11/18 07:24:00;;;;;;;10.60;6.90;;;;;;;0.37;64.23;99353.20;104913;1299;141283;-80
2022/11/18 07:26:30;;;;;;;10.10;6.30;;;;;;;0.40;63.66;99358.44;105083;1300;108412;-79
2022/11/18 07:29:01;;;;;;;11.10;6.80;;;;;;;0.34;63.36;99352.69;105085;1294;98069;-81
2022/11/18 07:31:34;;;;;;;11.70;6.90;;;;;;;0.32;63.87;99354.61;104970;1294;140224;-82
2022/11/18 07:34:04;;;;;;;9.70;6.70;;;;;;;0.33;64.08;99352.51;105102;1292;93411;-79
2022/11/18 07:36:35;;;;;;;11.30;7.00;;;;;;;0.30;63.66;99358.29;105000;1298;138451;-80
2022/11/18 07:39:07;;;;;;;10.90;6.80;;;;;;;0.26;64.04;99363.34;105124;1299;108462;-81
2022/11/18 07:41:40;;;;;;;12.20;7.20;;;;;;;0.25;63.93;99367.53;104996;1297;139419;-80
2022/11/18 07:44:16;;;;;;;10.10;6.60;;;;;;;0.17;63.78;99369.98;105086;1300;107255;-80
2022/11/18 07:46:47;;;;;;;10.20;6.30;;;;;;;0.21;64.09;99373.83;105060;1294;93280;-81
2022/11/18 07:49:18;;;;;;;10.90;6.60;;;;;;;0.26;64.22;99375.23;104985;1284;139007;-79
2022/11/18 07:51:49;;;;;;;10.80;6.30;;;;;;;0.27;64.16;99375.23;105101;1297;108332;-79
2022/11/18 07:54:20;;;;;;;11.10;6.70;;;;;;;0.33;63.74;99375.55;104682;1294;140274;-81
2022/11/18 07:56:50;;;;;;;10.10;6.70;;;;;;;0.39;63.65;99375.90;104993;1297;107473;-81
2022/11/18 07:59:21;;;;;;;10.00;6.50;;;;;;;0.44;63.68;99376.23;105061;1292;93852;-80
2022/11/18 08:01:52;;;;;;;9.50;5.80;;;;;;;0.46;63.65;99378.50;104857;1273;139914;-81
2022/11/18 08:04:23;;;;;;;9.90;6.10;;;;;;;0.44;64.31;99379.56;105087;1300;108571;-79
2022/11/18 08:06:53;;;;;;;10.30;6.10;;;;;;;0.44;63.54;99380.44;104995;1299;140163;-79
2022/11/18 08:09:24;;;;;;;9.60;6.20;;;;;;;0.40;63.58;99381.84;105084;1290;107487;-80
2022/11/18 08:11:55;;;;;;;9.60;6.20;;;;;;;0.45;63.72;99384.80;104976;1274;139403;-82
2022/11/18 08:14:27;;;;;;;10.60;6.40;;;;;;;0.42;63.09;99386.73;105078;1289;93381;-81
2022/11/18 08:16:58;;;;;;;9.70;6.10;;;;;;;0.41;63.62;99388.11;105066;1297;108395;-80
2022/11/18 08:19:28;;;;;;;9.40;5.40;;;;;;;0.44;63.41;99390.38;104965;1292;138666;-80
2022/11/18 08:21:59;;;;;;;8.40;5.60;;;;;;;0.45;63.24;99389.86;105101;1300;107496;-82
2022/11/18 08:24:30;;;;;;;9.60;5.30;;;;;;;0.48;63.09;99387.23;104949;1292;138507;-80
2022/11/18 08:27:00;;;;;;;9.30;5.20;;;;;;;0.48;63.09;99397.02;105080;1286;92990;-80
2022/11/18 08:29:31;;;;;;;8.60;5.00;;;;;;;0.52;62.68;99398.58;105073;1280;108069;-82
2022/11/18 08:32:02;;;;;;;8.90;5.70;;;;;;;0.62;63.29;99400.66;104959;1294;138310;-81
2022/11/18 08:34:33;;;;;;;8.30;5.30;;;;;;;0.61;62.67;99405.02;105056;1294;107691;-83
2022/11/18 08:37:03;;;;;;;8.50;4.80;;;;;;;0.61;62.68;99408.69;104965;1279;139540;-79
2022/11/18 08:39:34;;;;;;;8.20;4.80;;;;;;;0.60;62.33;99402.23;105094;1299;92872;-80
2022/11/18 08:42:05;;;;;;;9.90;4.80;;;;;;;0.59;61.94;99398.57;104964;1293;139740;-82
2022/11/18 08:44:35;;;;;;;11.10;5.50;;;;;;;0.56;62.36;99397.52;105132;1297;98083;-80
2022/11/18 08:47:06;;;;;;;8.30;5.10;;;;;;;0.59;62.35;99403.64;105077;1292;108062;-83
2022/11/18 08:49:37;;;;;;;9.40;4.90;;;;;;;0.64;62.38;99408.34;104991;1299;139742;-80
2022/11/18 08:52:08;;;;;;;8.70;4.80;;;;;;;0.71;62.42;99406.58;105125;1295;92884;-81
2022/11/18 08:54:39;;;;;;;7.80;4.10;;;;;;;0.80;62.21;99407.61;105002;1292;138702;-81
2022/11/18 08:57:09;;;;;;;10.90;4.90;;;;;;;0.76;61.03;99408.66;105094;1297;97958;-83
2022/11/18 08:59:40;;;;;;;9.40;4.70;;;;;;;0.59;61.27;99410.44;104959;1284;139178;-80
2022/11/18 09:02:16;;;;;;;7.60;4.70;;;;;;;0.61;62.05;99411.66;105080;1293;94073;-80
2022/11/18 09:04:48;;;;;;;9.90;5.30;;;;;;;0.61;61.43;99414.27;105083;1303;93629;-83
2022/11/18 09:07:19;;;;;;;9.40;5.10;;;;;;;0.53;61.71;99413.08;104994;1298;140889;-79
2022/11/18 09:09:50;;;;;;;9.00;5.20;;;;;;;0.55;62.01;99412.89;105119;1292;98083;-82
2022/11/18 09:12:20;;;;;;;9.20;4.80;;;;;;;0.61;62.35;99415.34;104997;1297;138655;-81
2022/11/18 09:14:51;;;;;;;8.10;4.70;;;;;;;0.67;62.21;99414.27;105065;1298;94015;-80
2022/11/18 09:17:42;;;;;;;7.80;4.70;;;;;;;0.76;61.77;99411.80;104983;1298;141210;-82
2022/11/18 09:20:13;;;;;;;7.00;4.20;;;;;;;0.82;61.53;99416.34;105061;1299;108903;-80
2022/11/18 09:22:43;;;;;;;8.70;4.50;;;;;;;0.77;60.97;99410.94;105089;1279;98079;-80
2022/11/18 09:25:14;;;;;;;7.00;4.70;;;;;;;0.79;61.20;99412.15;104999;1284;138018;-79
2022/11/18 09:27:46;;;;;;;7.10;4.10;;;;;;;0.82;61.11;99410.05;105101;1292;93260;-80
2022/11/18 09:30:17;;;;;;;9.40;4.90;;;;;;;0.80;60.12;99404.80;105033;1298;137601;-80
2022/11/18 09:32:49;;;;;;;8.90;4.90;;;;;;;0.77;60.31;99406.21;105086;1294;107920;-82
2022/11/18 09:35:19;;;;;;;7.40;4.80;;;;;;;0.77;60.42;99403.42;105073;1279;98658;-83
2022/11/18 09:37:50;;;;;;;8.90;5.10;;;;;;;0.80;60.33;99404.64;104896;1293;138987;-82
2022/11/18 09:40:21;;;;;;;8.00;4.90;;;;;;;0.79;59.65;99401.15;104966;1281;93295;-80
2022/11/18 09:43:02;;;;;;;8.90;5.40;;;;;;;0.79;60.32;99400.27;104911;1294;140637;-79
2022/11/18 09:45:38;;;;;;;9.20;5.50;;;;;;;0.87;60.41;99395.52;105060;1293;107932;-80
2022/11/18 09:48:19;;;;;;;9.10;5.20;;;;;;;0.91;60.22;99393.77;104996;1287;140452;-81
2022/11/18 09:50:50;;;;;;;9.20;6.30;;;;;;;0.83;59.47;99395.53;105031;1291;106741;-80
2022/11/18 09:53:22;;;;;;;8.50;5.60;;;;;;;0.75;60.36;99400.98;105066;1296;92899;-81
2022/11/18 09:55:54;;;;;;;8.10;5.00;;;;;;;0.77;60.57;99394.51;104978;1291;138234;-82
2022/11/18 09:58:31;;;;;;;8.10;5.00;;;;;;;0.80;59.76;99395.55;105054;1292;108654;-82
2022/11/18 10:01:02;;;;;;;8.70;5.70;;;;;;;0.77;59.78;99388.74;104996;1294;138604;-79
2022/11/18 10:03:34;;;;;;;8.50;5.30;;;;;;;0.82;59.90;99393.97;105065;1297;106683;-81
2022/11/18 10:06:17;;;;;;;8.80;5.40;;;;;;;0.82;59.95;99396.40;104959;1296;138852;-82
2022/11/18 10:09:05;;;;;;;8.70;5.80;;;;;;;0.87;59.98;99397.10;105121;1297;94215;-81
2022/11/18 10:11:41;;;;;;;9.20;5.50;;;;;;;0.98;59.84;99397.06;105075;1303;107859;-81
2022/11/18 10:14:33;;;;;;;7.80;4.50;;;;;;;1.03;59.51;99399.83;105056;1299;97904;-80
2022/11/18 10:17:10;;;;;;;10.80;4.90;;;;;;;0.96;59.41;99399.33;105037;1292;107508;-84
2022/11/18 10:19:50;;;;;;;9.70;5.40;;;;;;;0.99;59.44;99398.11;104947;1290;139166;-82
2022/11/18 10:22:26;;;;;;;9.30;5.60;;;;;;;1.05;60.27;99401.75;104798;1302;93240;-83
2022/11/18 10:25:11;;;;;;;8.50;5.40;;;;;;;1.16;59.93;99401.88;104663;1287;137854;-82
2022/11/18 10:27:43;;;;;;;9.80;5.50;;;;;;;1.18;59.31;99403.98;104754;1290;99141;-83
2022/11/18 10:30:17;;;;;;;9.10;5.60;;;;;;;1.16;59.68;99409.92;104641;1283;139944;-83
2022/11/18 10:33:01;;;;;;;9.90;5.30;;;;;;;1.21;60.02;99413.05;104756;1289;94372;-80
2022/11/18 10:35:34;;;;;;;9.50;5.60;;;;;;;1.17;59.16;99416.21;104808;1291;93940;-79
2022/11/18 10:38:16;;;;;;;9.30;5.10;;;;;;;1.09;59.43;99417.12;104661;1300;139237;-81
2022/11/18 10:40:59;;;;;;;8.10;4.70;;;;;;;1.09;58.92;99418.16;104812;1299;97993;-80
2022/11/18 10:43:48;;;;;;;8.60;4.20;;;;;;;1.08;58.74;99422.54;104656;1291;138550;-82
2022/11/18 10:46:25;;;;;;;7.00;4.20;;;;;;;1.06;58.54;99425.34;104811;1294;93418;-81
2022/11/18 10:49:15;;;;;;;7.00;3.80;;;;;;;1.06;58.09;99426.39;104673;1286;137653;-80
2022/11/18 10:51:48;;;;;;;6.90;4.00;;;;;;;1.11;58.12;99426.20;104801;1283;108972;-81
2022/11/18 10:54:21;;;;;;;8.70;4.80;;;;;;;1.23;58.16;99427.38;104732;1288;139434;-80
2022/11/18 10:56:55;;;;;;;8.20;4.30;;;;;;;1.14;56.75;99429.86;104811;1291;107311;-80
2022/11/18 10:59:33;;;;;;;7.70;3.90;;;;;;;1.04;57.78;99436.71;104824;1294;94159;-78
2022/11/18 11:02:15;;;;;;;7.40;3.90;;;;;;;1.04;58.07;99436.03;104715;1294;139451;-79
2022/11/18 11:04:47;;;;;;;7.90;3.90;;;;;;;1.12;57.53;99432.49;104810;1293;108412;-78
2022/11/18 11:07:26;;;;;;;7.70;4.10;;;;;;;1.13;56.89;99434.06;104628;1290;137420;-79
2022/11/18 11:10:22;;;;;;;6.60;4.00;;;;;;;1.11;56.83;99435.81;104757;1290;107297;-80
2022/11/18 11:12:57;;;;;;;7.10;3.80;;;;;;;0.90;56.75;99437.63;104711;1290;138554;-78
2022/11/18 11:15:33;;;;;;;6.50;4.00;;;;;;;0.83;57.52;99441.15;104869;1284;93201;-77
2022/11/18 11:20:58;;;;;;;7.70;4.20;;;;;;;0.76;57.80;99442.05;104836;1298;98209;-78
2022/11/18 11:23:36;;;;;;;6.80;4.00;;;;;;;0.85;57.19;99439.74;104824;1288;106678;-78
2022/11/18 11:26:17;;;;;;;7.20;4.00;;;;;;;0.93;57.83;99440.42;104703;1288;139607;-79
2022/11/18 11:29:20;;;;;;;7.40;4.20;;;;;;;1.05;57.19;99438.64;104825;1294;92967;-78
2022/11/18 11:32:01;;;;;;;9.00;4.60;;;;;;;1.04;56.77;99438.98;104746;1289;138783;-82
2022/11/18 11:34:41;;;;;;;8.20;4.10;;;;;;;1.13;57.18;99437.91;104835;1292;98053;-78
2022/11/18 11:37:21;;;;;;;9.20;4.40;;;;;;;1.19;57.57;99437.19;104665;1292;139968;-80
2022/11/18 11:40:02;;;;;;;7.30;3.70;;;;;;;1.31;57.69;99433.13;104808;1294;93720;-79
2022/11/18 11:42:43;;;;;;;8.50;4.00;;;;;;;1.40;57.75;99435.17;104731;1284;138831;-80
2022/11/18 11:45:24;;;;;;;8.60;4.20;;;;;;;1.45;57.47;99437.44;104834;1293;108757;-79
2022/11/18 11:48:14;;;;;;;7.10;4.10;;;;;;;1.45;56.00;99437.42;104741;1292;139324;-80
2022/11/18 11:50:54;;;;;;;8.30;4.50;;;;;;;1.33;56.62;99438.02;104812;1290;107519;-78
2022/11/18 11:54:02;;;;;;;7.60;4.40;;;;;;;1.37;57.06;99440.27;104735;1290;138906;-80
2022/11/18 11:56:38;;;;;;;8.40;4.80;;;;;;;1.37;57.08;99441.66;104836;1297;93203;-81
2022/11/18 11:59:17;;;;;;;8.70;4.90;;;;;;;1.30;56.80;99438.36;104820;1292;109430;-78
2022/11/18 12:02:04;;;;;;;7.80;4.40;;;;;;;1.30;57.65;99443.80;104894;1297;140079;-80
2022/11/18 12:04:43;;;;;;;8.90;4.90;;;;;;;1.32;57.75;99443.27;105081;1294;108069;-81